createdAt,value
2023-08-15T00:01:47.875Z,21.80
2023-08-15T00:04:18.041Z,21.70
2023-08-15T00:06:48.499Z,21.60
2023-08-15T00:09:18.915Z,21.60
2023-08-15T00:11:52.206Z,21.80
2023-08-15T00:14:22.636Z,21.60
2023-08-15T00:16:53.062Z,21.60
2023-08-15T00:19:23.040Z,21.50
2023-08-15T00:21:53.262Z,21.50
2023-08-15T00:24:23.343Z,21.50
2023-08-15T00:26:54.986Z,21.50
2023-08-15T00:29:24.874Z,21.50
2023-08-15T00:31:55.748Z,21.50
2023-08-15T00:34:26.166Z,21.50
2023-08-15T00:36:56.110Z,21.50
2023-08-15T00:39:26.681Z,21.60
2023-08-15T00:41:58.831Z,21.60
2023-08-15T00:44:29.227Z,21.40
2023-08-15T00:47:01.414Z,21.50
2023-08-15T00:49:35.515Z,21.50
2023-08-15T00:52:07.830Z,21.50
2023-08-15T00:54:39.163Z,21.50
2023-08-15T00:57:12.276Z,21.50
2023-08-15T00:59:42.690Z,21.80
2023-08-15T01:02:16.010Z,21.50
2023-08-15T01:04:47.612Z,21.40
2023-08-15T01:07:20.402Z,21.40
2023-08-15T01:09:50.589Z,21.40
2023-08-15T01:12:32.565Z,21.40
2023-08-15T01:15:07.191Z,21.50
2023-08-15T01:17:43.810Z,21.50
2023-08-15T01:20:17.747Z,21.40
2023-08-15T01:22:50.604Z,21.50
2023-08-15T01:25:23.254Z,21.50
2023-08-15T01:27:53.344Z,21.50
2023-08-15T01:30:26.432Z,21.50
2023-08-15T01:33:04.062Z,21.40
2023-08-15T01:35:39.400Z,21.40
2023-08-15T01:38:16.192Z,21.40
2023-08-15T01:40:51.084Z,21.30
2023-08-15T01:43:22.121Z,21.40
2023-08-15T01:45:53.007Z,21.40
2023-08-15T01:48:23.248Z,21.50
2023-08-15T01:50:53.490Z,21.30
2023-08-15T01:53:24.529Z,21.30
2023-08-15T01:55:56.040Z,21.40
2023-08-15T01:58:26.765Z,21.10
2023-08-15T02:00:57.672Z,21.20
2023-08-15T02:03:28.709Z,21.20
2023-08-15T02:05:58.898Z,21.70
2023-08-15T02:08:29.230Z,21.10
2023-08-15T02:11:00.930Z,21.40
2023-08-15T02:13:34.188Z,21.30
2023-08-15T02:16:04.480Z,21.10
2023-08-15T02:18:34.556Z,21.50
2023-08-15T02:21:04.574Z,20.80
2023-08-15T02:23:34.537Z,21.10
2023-08-15T02:26:06.629Z,21.10
2023-08-15T02:28:37.029Z,21.40
2023-08-15T02:31:08.123Z,21.30
2023-08-15T02:33:38.240Z,21.10
2023-08-15T02:36:09.625Z,21.40
2023-08-15T02:38:39.568Z,21.20
2023-08-15T02:41:11.259Z,21.40
2023-08-15T02:43:41.188Z,21.20
2023-08-15T02:46:11.469Z,21.20
2023-08-15T02:48:41.373Z,21.40
2023-08-15T02:51:11.637Z,21.10
2023-08-15T02:53:41.888Z,21.30
2023-08-15T02:56:15.654Z,21.40
2023-08-15T02:58:47.332Z,21.20
2023-08-15T03:01:18.757Z,21.10
2023-08-15T03:03:49.276Z,21.20
2023-08-15T03:06:19.197Z,21.50
2023-08-15T03:08:50.259Z,21.20
2023-08-15T03:11:22.421Z,20.70
2023-08-15T03:13:52.662Z,21.20
2023-08-15T03:20:58.189Z,21.30
2023-08-15T03:23:28.372Z,21.20
2023-08-15T03:25:59.595Z,21.20
2023-08-15T03:28:31.781Z,21.20
2023-08-15T03:31:06.079Z,21.30
2023-08-15T03:33:36.244Z,21.10
2023-08-15T03:36:06.981Z,20.50
2023-08-15T03:38:36.933Z,21.10
2023-08-15T03:41:08.136Z,21.10
2023-08-15T03:43:40.456Z,21.00
2023-08-15T03:46:10.603Z,20.80
2023-08-15T03:48:40.768Z,21.30
2023-08-15T03:51:12.924Z,21.00
2023-08-15T03:53:45.572Z,21.00
2023-08-15T03:56:15.684Z,21.40
2023-08-15T03:58:47.329Z,20.80
2023-08-15T04:01:17.256Z,21.00
2023-08-15T04:03:47.476Z,21.00
2023-08-15T04:06:17.456Z,20.70
2023-08-15T04:08:48.166Z,21.40
2023-08-15T04:11:18.263Z,21.10
2023-08-15T04:13:50.288Z,21.40
2023-08-15T04:16:20.274Z,21.10
2023-08-15T04:18:50.586Z,21.30
2023-08-15T04:21:20.662Z,21.00
2023-08-15T04:23:50.746Z,21.30
2023-08-15T04:26:20.949Z,21.10
2023-08-15T04:28:52.610Z,21.00
2023-08-15T04:31:23.053Z,20.90
2023-08-15T04:33:52.989Z,20.90
2023-08-15T04:36:23.583Z,20.90
2023-08-15T04:38:54.318Z,20.90
2023-08-15T04:41:24.230Z,21.00
2023-08-15T04:43:56.565Z,20.70
2023-08-15T04:46:26.869Z,20.60
2023-08-15T04:48:56.899Z,20.90
2023-08-15T04:51:27.299Z,20.90
2023-08-15T04:54:01.229Z,20.70
2023-08-15T04:56:34.650Z,20.90
2023-08-15T04:59:09.224Z,20.90
2023-08-15T05:01:47.153Z,21.00
2023-08-15T05:04:17.726Z,20.70
2023-08-15T05:06:47.865Z,20.80
2023-08-15T05:09:18.503Z,20.90
2023-08-15T05:11:48.798Z,20.90
2023-08-15T05:14:20.620Z,21.00
2023-08-15T05:16:54.051Z,21.00
2023-08-15T05:19:32.475Z,21.00
2023-08-15T05:22:03.258Z,21.10
2023-08-15T05:24:33.484Z,21.00
2023-08-15T05:27:03.542Z,21.00
2023-08-15T05:29:35.518Z,21.30
2023-08-15T05:32:06.413Z,21.10
2023-08-15T05:34:36.535Z,21.30
2023-08-15T05:37:06.941Z,21.00
2023-08-15T05:39:39.131Z,21.00
2023-08-15T05:42:09.520Z,20.60
2023-08-15T05:44:41.214Z,21.00
2023-08-15T05:47:11.164Z,21.00
2023-08-15T05:49:41.271Z,21.00
2023-08-15T05:52:11.499Z,21.10
2023-08-15T05:54:41.553Z,21.40
2023-08-15T05:57:11.753Z,20.80
2023-08-15T05:59:47.732Z,21.40
2023-08-15T06:02:19.187Z,21.10
2023-08-15T06:04:49.215Z,21.20
2023-08-15T06:07:19.576Z,21.40
2023-08-15T06:09:49.757Z,21.40
2023-08-15T06:12:19.907Z,21.60
2023-08-15T06:14:51.647Z,21.30
2023-08-15T06:17:22.182Z,21.40
2023-08-15T06:19:54.667Z,21.40
2023-08-15T06:22:37.210Z,21.30
2023-08-15T06:25:07.431Z,21.30
2023-08-15T06:27:37.788Z,21.50
2023-08-15T06:30:10.911Z,21.40
2023-08-15T06:32:43.172Z,21.40
2023-08-15T06:35:19.776Z,21.40
2023-08-15T06:37:53.366Z,21.40
2023-08-15T06:40:36.659Z,21.40
2023-08-15T06:43:11.327Z,21.40
2023-08-15T06:45:49.985Z,21.50
2023-08-15T06:48:20.699Z,21.50
2023-08-15T06:50:55.445Z,21.60
2023-08-15T06:53:29.157Z,21.60
2023-08-15T06:55:59.350Z,21.60
2023-08-15T06:58:30.179Z,21.70
2023-08-15T07:01:03.039Z,21.80
2023-08-15T07:03:36.420Z,21.70
2023-08-15T07:06:07.169Z,21.70
2023-08-15T07:08:37.310Z,21.90
2023-08-15T07:11:07.633Z,21.80
2023-08-15T07:13:37.654Z,21.90
2023-08-15T07:16:09.457Z,21.90
2023-08-15T07:18:39.719Z,21.80
2023-08-15T07:21:09.622Z,21.90
2023-08-15T07:23:39.826Z,21.90
2023-08-15T07:26:09.858Z,22.00
2023-08-15T07:28:39.874Z,22.00
2023-08-15T07:31:11.700Z,22.20
2023-08-15T07:33:41.702Z,22.30
2023-08-15T07:36:12.166Z,22.40
2023-08-15T07:38:42.141Z,22.40
2023-08-15T07:41:12.236Z,22.50
2023-08-15T07:43:42.160Z,22.50
2023-08-15T07:46:14.204Z,22.60
2023-08-15T07:48:44.604Z,22.60
2023-08-15T07:51:14.657Z,22.80
2023-08-15T07:53:44.595Z,22.90
2023-08-15T07:56:14.996Z,23.00
2023-08-15T07:58:45.228Z,23.10
2023-08-15T08:01:17.022Z,23.30
2023-08-15T08:03:47.095Z,23.40
2023-08-15T08:06:37.224Z,23.50
2023-08-15T08:09:07.767Z,23.40
2023-08-15T08:11:37.988Z,23.40
2023-08-15T08:14:08.285Z,23.40
2023-08-15T08:16:39.888Z,23.50
2023-08-15T08:19:10.340Z,23.70
2023-08-15T08:21:40.586Z,23.80
2023-08-15T08:24:11.256Z,24.00
2023-08-15T08:26:41.878Z,24.10
2023-08-15T08:29:12.172Z,24.40
2023-08-15T08:31:44.272Z,24.40
2023-08-15T08:34:16.749Z,24.40
2023-08-15T08:36:47.622Z,24.50
2023-08-15T08:39:29.644Z,24.60
2023-08-15T08:42:02.462Z,24.60
2023-08-15T08:44:34.914Z,24.60
2023-08-15T08:47:07.213Z,24.50
2023-08-15T08:49:38.522Z,24.50
2023-08-15T08:52:09.335Z,24.50
2023-08-15T08:54:55.916Z,24.60
2023-08-15T08:57:31.544Z,24.80
2023-08-15T09:00:03.270Z,24.90
2023-08-15T09:02:35.190Z,24.90
2023-08-15T09:05:09.067Z,25.00
2023-08-15T09:07:39.321Z,25.10
2023-08-15T09:10:10.366Z,25.20
2023-08-15T09:12:41.826Z,25.30
2023-08-15T09:15:14.353Z,25.40
2023-08-15T09:17:46.888Z,25.60
2023-08-15T09:20:18.401Z,25.80
2023-08-15T09:22:49.787Z,25.80
2023-08-15T09:25:21.001Z,25.90
2023-08-15T09:27:50.865Z,26.00
2023-08-15T09:30:21.857Z,26.00
2023-08-15T09:32:53.533Z,26.10
2023-08-15T09:35:23.874Z,26.20
2023-08-15T09:37:54.093Z,26.30
2023-08-15T09:40:27.209Z,26.30
2023-08-15T09:42:57.929Z,26.40
2023-08-15T09:45:28.859Z,26.40
2023-08-15T09:48:01.929Z,26.50
2023-08-15T09:50:33.503Z,26.60
2023-08-15T09:53:05.676Z,26.60
2023-08-15T09:55:37.962Z,26.60
2023-08-15T09:58:08.184Z,26.60
2023-08-15T10:00:40.354Z,26.50
2023-08-15T10:03:19.125Z,26.40
2023-08-15T10:05:52.246Z,26.30
2023-08-15T10:08:23.693Z,26.30
2023-08-15T10:10:54.836Z,26.50
2023-08-15T10:13:28.203Z,26.60
2023-08-15T10:15:59.457Z,26.60
2023-08-15T10:18:32.542Z,26.40
2023-08-15T10:21:03.789Z,26.30
2023-08-15T10:23:36.365Z,26.10
2023-08-15T10:26:08.693Z,25.90
2023-08-15T10:28:38.650Z,25.80
2023-08-15T10:31:10.396Z,25.70
2023-08-15T10:33:43.725Z,25.60
2023-08-15T10:36:14.161Z,25.50
2023-08-15T10:38:45.520Z,25.40
2023-08-15T10:41:19.494Z,25.40
2023-08-15T10:43:51.973Z,25.30
2023-08-15T10:46:28.628Z,25.30
2023-08-15T10:49:04.825Z,25.20
2023-08-15T10:51:35.763Z,25.10
2023-08-15T10:54:07.072Z,25.20
2023-08-15T10:56:37.999Z,24.90
2023-08-15T10:59:10.276Z,24.80
2023-08-15T11:01:42.961Z,24.50
2023-08-15T11:04:19.230Z,24.30
2023-08-15T11:06:50.895Z,24.10
2023-08-15T11:09:21.076Z,24.00
2023-08-15T11:11:51.393Z,23.90
2023-08-15T11:14:22.780Z,23.70
2023-08-15T11:16:52.988Z,23.70
2023-08-15T11:19:24.759Z,23.50
2023-08-15T11:21:55.262Z,23.30
2023-08-15T11:24:26.068Z,23.20
2023-08-15T11:26:56.810Z,23.20
2023-08-15T11:29:26.922Z,23.40
2023-08-15T11:32:00.508Z,23.40
2023-08-15T11:34:32.085Z,23.40
2023-08-15T11:37:02.093Z,23.20
2023-08-15T11:39:32.271Z,23.20
2023-08-15T11:42:02.636Z,23.00
2023-08-15T11:44:32.755Z,23.00
2023-08-15T11:47:02.938Z,22.90
2023-08-15T11:49:45.619Z,22.60
2023-08-15T11:52:18.959Z,22.80
2023-08-15T11:54:49.111Z,22.80
2023-08-15T11:57:37.104Z,22.80
2023-08-15T12:00:08.768Z,22.80
2023-08-15T12:02:44.642Z,22.90
2023-08-15T12:05:18.563Z,22.90
2023-08-15T12:07:50.297Z,22.90
2023-08-15T12:10:21.836Z,23.00
2023-08-15T12:12:53.712Z,23.00
2023-08-15T12:15:25.109Z,23.00
2023-08-15T12:17:57.870Z,23.10
2023-08-15T12:20:31.678Z,23.10
2023-08-15T12:23:02.832Z,23.20
2023-08-15T12:25:34.446Z,23.10
2023-08-15T12:28:04.850Z,23.10
2023-08-15T12:30:34.835Z,23.10
2023-08-15T12:33:05.608Z,23.10
2023-08-15T12:35:37.116Z,23.00
2023-08-15T12:38:07.534Z,23.00
2023-08-15T12:40:37.946Z,23.00
2023-08-15T12:43:10.963Z,22.90
2023-08-15T12:45:41.154Z,22.90
2023-08-15T12:48:11.920Z,23.00
2023-08-15T12:50:43.797Z,23.00
2023-08-15T12:53:14.509Z,23.00
2023-08-15T12:55:45.405Z,23.00
2023-08-15T12:58:15.974Z,22.90
2023-08-15T13:00:48.694Z,22.90
2023-08-15T13:03:20.121Z,22.80
2023-08-15T13:05:51.845Z,22.70
2023-08-15T13:08:22.775Z,22.70
2023-08-15T13:10:53.058Z,22.70
2023-08-15T13:13:23.004Z,22.60
2023-08-15T13:15:53.204Z,22.50
2023-08-15T13:18:23.444Z,22.70
2023-08-15T13:20:55.201Z,22.40
2023-08-15T13:23:25.149Z,22.40
2023-08-15T13:25:55.272Z,22.40
2023-08-15T13:28:25.244Z,22.30
2023-08-15T13:30:57.019Z,22.40
2023-08-15T13:33:28.372Z,22.40
2023-08-15T13:36:01.734Z,22.40
2023-08-15T13:38:38.814Z,22.40
2023-08-15T13:41:12.287Z,22.50
2023-08-15T13:43:48.699Z,22.70
2023-08-15T13:46:20.484Z,23.00
2023-08-15T13:48:51.038Z,23.40
2023-08-15T13:51:27.421Z,23.50
2023-08-15T13:53:58.679Z,23.50
2023-08-15T13:56:30.395Z,23.30
2023-08-15T13:59:01.262Z,23.20
2023-08-15T14:01:34.432Z,23.10
2023-08-15T14:04:05.020Z,23.00
2023-08-15T14:06:37.601Z,22.90
2023-08-15T14:09:08.429Z,22.90
2023-08-15T14:11:38.678Z,22.80
2023-08-15T14:14:09.604Z,22.70
2023-08-15T14:16:40.452Z,22.80
2023-08-15T14:19:11.282Z,22.80
2023-08-15T14:21:42.963Z,22.80
2023-08-15T14:24:13.890Z,22.90
2023-08-15T14:26:46.247Z,22.90
2023-08-15T14:29:19.586Z,23.00
2023-08-15T14:31:50.367Z,23.20
2023-08-15T14:34:21.276Z,23.60
2023-08-15T14:36:55.721Z,23.90
2023-08-15T14:39:27.311Z,24.60
2023-08-15T14:41:59.103Z,24.90
2023-08-15T14:44:32.973Z,25.30
2023-08-15T14:47:04.906Z,26.00
2023-08-15T14:49:35.155Z,26.60
2023-08-15T14:52:07.209Z,26.40
2023-08-15T14:54:39.136Z,26.00
2023-08-15T14:57:09.449Z,25.60
2023-08-15T14:59:39.697Z,25.30
2023-08-15T15:02:10.307Z,25.10
2023-08-15T15:04:40.165Z,24.90
2023-08-15T15:07:12.375Z,24.70
2023-08-15T15:09:42.694Z,24.40
2023-08-15T15:12:13.067Z,24.10
2023-08-15T15:14:43.144Z,24.20
2023-08-15T15:17:13.482Z,23.80
2023-08-15T15:19:43.656Z,23.70
2023-08-15T15:22:15.271Z,23.60
2023-08-15T15:24:45.662Z,23.60
2023-08-15T15:27:15.746Z,23.40
2023-08-15T15:29:48.301Z,23.40
2023-08-15T15:32:20.535Z,23.30
2023-08-15T15:34:51.880Z,23.30
2023-08-15T15:37:24.220Z,23.10
2023-08-15T15:39:54.446Z,23.20
2023-08-15T15:42:24.464Z,23.10
2023-08-15T15:44:54.815Z,23.10
2023-08-15T15:47:25.157Z,23.00
2023-08-15T15:49:55.267Z,22.90
2023-08-15T15:52:27.324Z,23.20
2023-08-15T15:54:57.366Z,23.00
2023-08-15T15:57:27.400Z,22.90
2023-08-15T15:59:57.442Z,22.90
2023-08-15T16:02:27.721Z,22.90
2023-08-15T16:05:02.064Z,22.90
2023-08-15T16:07:42.034Z,22.90
2023-08-15T16:10:41.678Z,23.00
2023-08-15T16:13:14.412Z,22.90
2023-08-15T16:15:47.174Z,23.00
2023-08-15T16:18:17.666Z,23.00
2023-08-15T16:20:47.717Z,23.10
2023-08-15T16:23:19.767Z,23.10
2023-08-15T16:25:49.806Z,23.10
2023-08-15T16:28:19.704Z,23.00
2023-08-15T16:30:53.583Z,23.00
2023-08-15T16:33:23.956Z,23.00
2023-08-15T16:35:53.939Z,23.00
2023-08-15T16:38:25.982Z,23.10
2023-08-15T16:40:56.918Z,23.20
2023-08-15T16:43:28.718Z,23.20
2023-08-15T16:45:58.879Z,23.20
2023-08-15T16:48:30.949Z,23.20
2023-08-15T16:51:07.146Z,23.20
2023-08-15T16:53:39.264Z,23.10
2023-08-15T16:56:09.318Z,23.10
2023-08-15T16:58:39.497Z,23.00
2023-08-15T17:01:09.446Z,23.00
2023-08-15T17:03:39.723Z,23.10
2023-08-15T17:06:10.447Z,23.10
2023-08-15T17:09:45.180Z,23.10
2023-08-15T17:12:16.934Z,23.00
2023-08-15T17:14:46.991Z,23.10
2023-08-15T17:17:16.925Z,23.00
2023-08-15T17:19:47.626Z,23.00
2023-08-15T17:22:17.780Z,23.00
2023-08-15T17:24:49.321Z,23.10
2023-08-15T17:27:22.662Z,23.10
2023-08-15T17:29:53.460Z,23.10
2023-08-15T17:32:24.216Z,23.10
2023-08-15T17:34:54.929Z,23.00
2023-08-15T17:37:24.950Z,23.00
2023-08-15T17:39:55.015Z,23.00
2023-08-15T17:42:26.824Z,23.00
2023-08-15T17:44:56.866Z,23.00
2023-08-15T17:47:27.081Z,23.00
2023-08-15T17:49:57.215Z,23.00
2023-08-15T17:52:27.251Z,22.90
2023-08-15T17:54:57.785Z,22.90
2023-08-15T17:57:29.545Z,22.90
2023-08-15T18:00:01.149Z,22.90
2023-08-15T18:02:31.829Z,22.80
2023-08-15T18:05:02.310Z,22.80
2023-08-15T18:07:32.377Z,22.80
2023-08-15T18:10:02.805Z,22.50
2023-08-15T18:12:34.782Z,22.70
2023-08-15T18:15:04.859Z,22.70
2023-08-15T18:17:34.783Z,22.70
2023-08-15T18:20:04.866Z,22.60
2023-08-15T18:22:34.815Z,22.60
2023-08-15T18:25:05.242Z,22.70
2023-08-15T18:27:36.769Z,22.60
2023-08-15T18:30:07.585Z,22.60
2023-08-15T18:32:37.800Z,22.50
2023-08-15T18:35:09.102Z,22.50
2023-08-15T18:37:39.544Z,22.60
2023-08-15T18:40:11.564Z,22.50
2023-08-15T18:42:43.569Z,22.50
2023-08-15T18:45:14.639Z,22.50
2023-08-15T18:47:47.267Z,22.40
2023-08-15T18:50:19.836Z,22.40
2023-08-15T18:52:50.106Z,22.30
2023-08-15T18:55:20.566Z,22.30
2023-08-15T18:57:52.340Z,22.30
2023-08-15T19:00:22.328Z,22.30
2023-08-15T19:02:52.506Z,22.30
2023-08-15T19:05:22.789Z,22.50
2023-08-15T19:07:53.003Z,22.00
2023-08-15T19:10:23.442Z,22.20
2023-08-15T19:12:55.105Z,22.10
2023-08-15T19:15:25.501Z,22.20
2023-08-15T19:17:56.155Z,22.00
2023-08-15T19:20:28.545Z,22.00
2023-08-15T19:22:58.775Z,22.10
2023-08-15T19:25:29.946Z,22.00
2023-08-15T19:28:02.556Z,22.00
2023-08-15T19:30:32.914Z,21.90
2023-08-15T19:33:03.662Z,21.90
2023-08-15T19:35:33.863Z,21.90
2023-08-15T19:38:03.767Z,22.00
2023-08-15T19:40:33.981Z,21.90
2023-08-15T19:43:06.637Z,21.90
2023-08-15T19:45:36.714Z,21.80
2023-08-15T19:48:07.227Z,21.80
2023-08-15T19:50:38.379Z,21.80
2023-08-15T19:53:08.564Z,21.90
2023-08-15T19:55:39.441Z,21.90
2023-08-15T19:58:11.941Z,21.80
2023-08-15T20:00:42.185Z,21.80
2023-08-15T20:03:12.720Z,21.70
2023-08-15T20:05:43.025Z,21.70
2023-08-15T20:08:13.716Z,21.70
2023-08-15T20:10:44.200Z,21.70
2023-08-15T20:13:16.074Z,21.70
2023-08-15T20:15:47.657Z,21.70
2023-08-15T20:18:17.998Z,21.60
2023-08-15T20:20:47.960Z,21.60
2023-08-15T20:23:18.388Z,21.60
2023-08-15T20:25:48.315Z,21.60
2023-08-15T20:28:20.321Z,21.60
2023-08-15T20:30:50.261Z,21.60
2023-08-15T20:33:20.818Z,21.50
2023-08-15T20:35:50.716Z,21.50
2023-08-15T20:38:22.368Z,21.60
2023-08-15T20:40:52.415Z,21.50
2023-08-15T20:43:24.052Z,21.50
2023-08-15T20:45:54.414Z,21.40
2023-08-15T20:48:25.121Z,21.40
2023-08-15T20:50:55.499Z,21.00
2023-08-15T20:53:26.018Z,21.50
2023-08-15T20:55:56.048Z,21.30
2023-08-15T20:58:27.559Z,21.20
2023-08-15T21:00:58.241Z,21.30
2023-08-15T21:03:28.897Z,21.30
2023-08-15T21:05:58.989Z,21.40
2023-08-15T21:08:28.854Z,21.30
2023-08-15T21:10:59.818Z,21.10
2023-08-15T21:13:31.541Z,21.40
2023-08-15T21:16:01.635Z,21.20
2023-08-15T21:18:31.501Z,21.40
2023-08-15T21:21:01.838Z,21.20
2023-08-15T21:23:32.673Z,21.20
2023-08-15T21:26:03.320Z,21.20
2023-08-15T21:28:35.263Z,21.30
2023-08-15T21:31:06.607Z,21.10
2023-08-15T21:33:38.453Z,21.10
2023-08-15T21:36:08.664Z,21.10
2023-08-15T21:38:38.735Z,21.20
2023-08-15T21:41:09.068Z,20.80
2023-08-15T21:43:40.679Z,21.10
2023-08-15T21:46:10.607Z,21.00
2023-08-15T21:48:40.670Z,21.10
2023-08-15T21:51:10.917Z,21.00
2023-08-15T21:53:40.781Z,21.00
2023-08-15T21:56:10.933Z,21.00
2023-08-15T21:58:43.630Z,21.10
2023-08-15T22:01:13.663Z,21.00
2023-08-15T22:03:44.121Z,21.00
2023-08-15T22:06:16.593Z,21.10
2023-08-15T22:08:46.739Z,21.30
2023-08-15T22:11:16.809Z,21.30
2023-08-15T22:13:48.780Z,21.00
2023-08-15T22:16:19.390Z,20.90
2023-08-15T22:18:49.908Z,21.00
2023-08-15T22:21:19.787Z,20.70
2023-08-15T22:23:50.483Z,20.90
2023-08-15T22:26:20.735Z,21.00
2023-08-15T22:28:53.386Z,21.00
2023-08-15T22:31:23.359Z,20.90
2023-08-15T22:33:53.762Z,20.90
2023-08-15T22:36:23.951Z,20.40
2023-08-15T22:38:54.621Z,20.90
2023-08-15T22:41:24.672Z,20.90
2023-08-15T22:43:56.293Z,20.70
2023-08-15T22:46:26.615Z,20.90
2023-08-15T22:48:56.934Z,21.00
2023-08-15T22:51:27.090Z,20.20
2023-08-15T22:53:58.341Z,20.80
2023-08-15T22:56:28.462Z,20.80
2023-08-15T22:59:00.545Z,20.80
2023-08-15T23:01:30.824Z,20.70
2023-08-15T23:04:01.497Z,20.90
2023-08-15T23:06:31.631Z,20.60
2023-08-15T23:09:01.873Z,20.70
2023-08-15T23:11:31.952Z,20.40
2023-08-15T23:14:03.749Z,20.70
2023-08-15T23:16:33.973Z,20.70
2023-08-15T23:19:05.102Z,20.80
2023-08-15T23:21:35.173Z,20.50
2023-08-15T23:24:06.844Z,20.70
2023-08-15T23:26:37.298Z,20.50
2023-08-15T23:29:09.500Z,20.70
2023-08-15T23:31:40.044Z,20.70
2023-08-15T23:34:10.424Z,20.50
2023-08-15T23:36:40.349Z,20.20
2023-08-15T23:39:10.722Z,20.60
2023-08-15T23:41:41.134Z,20.50
2023-08-15T23:44:13.285Z,20.30
2023-08-15T23:46:43.395Z,20.40
2023-08-15T23:49:14.247Z,20.40
2023-08-15T23:51:44.491Z,20.20
2023-08-15T23:54:14.549Z,20.50
2023-08-15T23:56:44.621Z,20.40
2023-08-15T23:59:17.122Z,20.40
